createdAt,value
2023-03-28T00:01:01.599Z,102164.34
2023-03-28T00:03:29.471Z,102162.47
2023-03-28T00:05:57.932Z,102158.25
2023-03-28T00:08:24.575Z,102164.44
2023-03-28T00:10:51.143Z,102169.78
2023-03-28T00:13:19.961Z,102171.59
2023-03-28T00:15:46.888Z,102177.25
2023-03-28T00:18:13.378Z,102174.88
2023-03-28T00:20:45.243Z,102169.84
2023-03-28T00:23:12.539Z,102169.47
2023-03-28T00:25:41.627Z,102175.81
2023-03-28T00:28:08.146Z,102176.25
2023-03-28T00:30:34.654Z,102178.25
2023-03-28T00:33:01.156Z,102173.81
2023-03-28T00:35:27.573Z,102182.78
2023-03-28T00:37:58.408Z,102177.72
2023-03-28T00:40:26.036Z,102179.72
2023-03-28T00:42:53.084Z,102178.03
2023-03-28T00:45:21.595Z,102176.03
2023-03-28T00:47:58.878Z,102178.56
2023-03-28T00:50:30.627Z,102175.03
2023-03-28T00:53:04.625Z,102177.34
2023-03-28T00:55:46.693Z,102177.81
2023-03-28T00:58:17.816Z,102180.44
2023-03-28T01:00:47.528Z,102182.91
2023-03-28T01:03:15.997Z,102181.53
2023-03-28T01:05:44.097Z,102179.13
2023-03-28T01:08:23.446Z,102177.47
2023-03-28T01:10:50.559Z,102178.31
2023-03-28T01:13:21.932Z,102178.91
2023-03-28T01:15:51.906Z,102179.13
2023-03-28T01:18:22.993Z,102179.28
2023-03-28T01:21:08.343Z,102183.13
2023-03-28T01:24:10.934Z,102184.50
2023-03-28T01:26:50.899Z,102182.97
2023-03-28T01:29:29.438Z,102188.03
2023-03-28T01:32:01.845Z,102191.38
2023-03-28T01:34:51.676Z,102191.16
2023-03-28T01:37:25.956Z,102185.94
2023-03-28T01:40:13.453Z,102180.16
2023-03-28T01:42:55.190Z,102185.66
2023-03-28T01:45:44.999Z,102182.22
2023-03-28T01:48:14.244Z,102175.41
2023-03-28T01:50:49.596Z,102171.13
2023-03-28T01:53:30.435Z,102170.13
2023-03-28T01:56:11.105Z,102164.25
2023-03-28T01:58:50.039Z,102166.78
2023-03-28T02:01:27.200Z,102165.69
2023-03-28T02:04:00.954Z,102159.50
2023-03-28T02:06:30.442Z,102156.41
2023-03-28T02:08:57.521Z,102159.84
2023-03-28T02:11:27.310Z,102156.72
2023-03-28T02:14:09.782Z,102153.28
2023-03-28T02:16:41.205Z,102160.00
2023-03-28T02:19:09.363Z,102160.94
2023-03-28T02:21:45.578Z,102163.06
2023-03-28T02:24:12.551Z,102161.53
2023-03-28T02:26:39.708Z,102165.53
2023-03-28T02:29:08.967Z,102160.22
2023-03-28T02:31:36.756Z,102164.19
2023-03-28T02:34:03.454Z,102155.00
2023-03-28T02:36:45.889Z,102152.34
2023-03-28T02:39:38.965Z,102165.56
2023-03-28T02:42:26.607Z,102161.94
2023-03-28T02:45:17.702Z,102150.19
2023-03-28T02:48:14.239Z,102155.06
2023-03-28T02:50:57.478Z,102160.56
2023-03-28T02:53:32.861Z,102168.63
2023-03-28T02:56:11.822Z,102168.34
2023-03-28T02:58:46.321Z,102165.81
2023-03-28T03:01:14.589Z,102165.13
2023-03-28T03:03:42.240Z,102170.13
2023-03-28T03:06:09.244Z,102164.84
2023-03-28T03:08:36.089Z,102167.66
2023-03-28T03:11:02.450Z,102175.22
2023-03-28T03:13:28.873Z,102170.72
2023-03-28T03:15:56.093Z,102169.22
2023-03-28T03:18:23.242Z,102165.72
2023-03-28T03:20:50.223Z,102172.75
2023-03-28T03:23:16.747Z,102161.75
2023-03-28T03:25:43.384Z,102170.06
2023-03-28T03:28:10.778Z,102177.25
2023-03-28T03:30:37.135Z,102180.06
2023-03-28T03:33:05.434Z,102176.72
2023-03-28T03:35:33.396Z,102174.72
2023-03-28T03:38:00.786Z,102175.84
2023-03-28T03:40:27.319Z,102167.34
2023-03-28T03:42:53.788Z,102172.91
2023-03-28T03:45:20.220Z,102173.06
2023-03-28T03:47:46.695Z,102176.88
2023-03-28T03:50:13.672Z,102181.47
2023-03-28T03:52:40.133Z,102173.88
2023-03-28T03:55:07.482Z,102173.06
2023-03-28T03:57:34.080Z,102179.56
2023-03-28T04:00:01.947Z,102177.03
2023-03-28T04:02:28.539Z,102175.63
2023-03-28T04:04:57.171Z,102183.09
2023-03-28T04:07:23.512Z,102191.38
2023-03-28T04:09:49.867Z,102199.09
2023-03-28T04:12:16.629Z,102193.91
2023-03-28T04:14:42.959Z,102194.63
2023-03-28T04:17:10.017Z,102192.25
2023-03-28T04:19:40.601Z,102195.41
2023-03-28T04:22:08.119Z,102188.56
2023-03-28T04:24:37.103Z,102199.66
2023-03-28T04:27:03.557Z,102201.03
2023-03-28T04:29:32.818Z,102201.59
2023-03-28T04:31:59.541Z,102199.47
2023-03-28T04:34:30.065Z,102196.78
2023-03-28T04:37:01.695Z,102195.53
2023-03-28T04:39:33.701Z,102198.75
2023-03-28T04:42:01.975Z,102194.00
2023-03-28T04:44:29.400Z,102199.06
2023-03-28T04:46:56.455Z,102198.50
2023-03-28T04:49:23.123Z,102197.78
2023-03-28T04:51:50.707Z,102206.66
2023-03-28T04:54:17.711Z,102200.22
2023-03-28T04:56:45.612Z,102212.44
2023-03-28T04:59:12.508Z,102210.19
2023-03-28T05:01:38.928Z,102207.66
2023-03-28T05:04:05.506Z,102209.75
2023-03-28T05:06:32.194Z,102214.53
2023-03-28T05:08:58.656Z,102213.97
2023-03-28T05:11:25.171Z,102213.13
2023-03-28T05:13:51.948Z,102214.41
2023-03-28T05:16:18.365Z,102215.81
2023-03-28T05:18:44.782Z,102220.16
2023-03-28T05:21:11.190Z,102214.97
2023-03-28T05:23:37.570Z,102234.53
2023-03-28T05:26:04.073Z,102240.44
2023-03-28T05:28:31.359Z,102229.56
2023-03-28T05:30:57.979Z,102232.78
2023-03-28T05:33:25.560Z,102227.59
2023-03-28T05:35:53.570Z,102231.13
2023-03-28T05:38:19.948Z,102228.28
2023-03-28T05:40:46.989Z,102228.00
2023-03-28T05:43:13.425Z,102226.59
2023-03-28T05:45:40.134Z,102225.91
2023-03-28T05:48:06.542Z,102222.66
2023-03-28T05:50:32.866Z,102227.03
2023-03-28T05:52:59.171Z,102223.78
2023-03-28T05:55:25.474Z,102233.31
2023-03-28T05:57:51.986Z,102232.50
2023-03-28T06:00:19.350Z,102237.22
2023-03-28T06:02:46.640Z,102231.41
2023-03-28T06:05:13.705Z,102237.19
2023-03-28T06:07:42.857Z,102233.81
2023-03-28T06:10:12.192Z,102235.06
2023-03-28T06:12:38.869Z,102232.66
2023-03-28T06:15:06.142Z,102240.22
2023-03-28T06:17:32.585Z,102245.41
2023-03-28T06:19:59.060Z,102244.66
2023-03-28T06:22:26.539Z,102248.25
2023-03-28T06:24:53.059Z,102242.03
2023-03-28T06:27:19.440Z,102247.53
2023-03-28T06:29:45.920Z,102251.25
2023-03-28T06:32:12.644Z,102256.53
2023-03-28T06:34:38.990Z,102263.41
2023-03-28T06:37:05.515Z,102259.97
2023-03-28T06:39:32.033Z,102268.16
2023-03-28T06:41:59.686Z,102257.34
2023-03-28T06:44:26.102Z,102268.00
2023-03-28T06:46:52.502Z,102266.63
2023-03-28T06:49:19.002Z,102273.81
2023-03-28T06:51:45.596Z,102279.41
2023-03-28T06:54:12.017Z,102278.22
2023-03-28T06:56:38.365Z,102277.78
2023-03-28T06:59:04.874Z,102275.84
2023-03-28T07:01:31.264Z,102275.75
2023-03-28T07:03:59.524Z,102277.31
2023-03-28T07:06:27.660Z,102278.09
2023-03-28T07:08:56.198Z,102279.06
2023-03-28T07:11:22.787Z,102280.22
2023-03-28T07:13:49.332Z,102279.59
2023-03-28T07:16:16.609Z,102275.97
2023-03-28T07:18:43.774Z,102276.00
2023-03-28T07:21:12.996Z,102276.34
2023-03-28T07:23:40.368Z,102281.22
2023-03-28T07:26:11.049Z,102281.13
2023-03-28T07:28:37.750Z,102280.38
2023-03-28T07:31:05.386Z,102283.56
2023-03-28T07:33:37.126Z,102283.91
2023-03-28T07:36:14.087Z,102284.59
2023-03-28T07:38:40.696Z,102282.03
2023-03-28T07:41:07.969Z,102281.88
2023-03-28T07:43:34.852Z,102284.34
2023-03-28T07:46:06.699Z,102277.00
2023-03-28T07:48:35.406Z,102286.38
2023-03-28T07:51:02.933Z,102289.06
2023-03-28T07:53:29.581Z,102285.13
2023-03-28T07:55:56.342Z,102287.66
2023-03-28T07:58:23.128Z,102289.06
2023-03-28T08:00:49.886Z,102287.91
2023-03-28T08:03:17.423Z,102287.72
2023-03-28T08:05:51.637Z,102282.66
2023-03-28T08:08:19.849Z,102279.63
2023-03-28T08:10:50.872Z,102286.16
2023-03-28T08:13:18.351Z,102290.13
2023-03-28T08:15:44.823Z,102280.91
2023-03-28T08:18:12.922Z,102289.22
2023-03-28T08:20:39.253Z,102290.69
2023-03-28T08:23:07.315Z,102297.63
2023-03-28T08:25:33.619Z,102286.56
2023-03-28T08:28:00.204Z,102296.63
2023-03-28T08:30:26.850Z,102297.47
2023-03-28T08:32:53.420Z,102295.59
2023-03-28T08:35:19.901Z,102291.50
2023-03-28T08:37:46.532Z,102296.28
2023-03-28T08:40:17.519Z,102293.28
2023-03-28T08:42:56.186Z,102293.53
2023-03-28T08:46:01.708Z,102293.44
2023-03-28T08:48:37.896Z,102293.72
2023-03-28T08:51:13.573Z,102299.78
2023-03-28T08:53:44.651Z,102292.00
2023-03-28T08:56:15.468Z,102294.94
2023-03-28T08:59:03.827Z,102285.59
2023-03-28T09:01:32.737Z,102285.56
2023-03-28T09:04:00.778Z,102283.41
2023-03-28T09:06:45.278Z,102274.47
2023-03-28T09:09:38.499Z,102285.72
2023-03-28T09:12:41.602Z,102283.84
2023-03-28T09:15:27.695Z,102280.88
2023-03-28T09:18:23.859Z,102280.66
2023-03-28T09:21:31.928Z,102280.41
2023-03-28T09:24:17.787Z,102288.00
2023-03-28T09:26:52.241Z,102279.25
2023-03-28T09:29:24.552Z,102282.91
2023-03-28T09:31:58.094Z,102281.31
2023-03-28T09:34:30.638Z,102273.06
2023-03-28T09:37:02.831Z,102266.31
2023-03-28T09:39:37.238Z,102269.47
2023-03-28T09:42:16.146Z,102274.75
2023-03-28T09:44:58.349Z,102264.56
2023-03-28T09:47:24.893Z,102263.28
2023-03-28T09:50:02.299Z,102254.56
2023-03-28T09:52:36.662Z,102248.66
2023-03-28T09:55:03.177Z,102242.63
2023-03-28T09:58:06.625Z,102240.94
2023-03-28T10:00:46.258Z,102239.28
2023-03-28T10:03:32.369Z,102241.44
2023-03-28T10:06:00.491Z,102241.59
2023-03-28T10:08:28.752Z,102234.59
2023-03-28T10:11:12.189Z,102235.84
2023-03-28T10:13:45.670Z,102235.84
2023-03-28T10:16:15.322Z,102222.94
2023-03-28T10:18:43.066Z,102230.47
2023-03-28T10:21:14.493Z,102219.69
2023-03-28T10:24:02.219Z,102230.31
2023-03-28T10:26:29.574Z,102220.97
2023-03-28T10:29:02.317Z,102224.28
2023-03-28T10:31:32.793Z,102219.97
2023-03-28T10:34:00.981Z,102222.22
2023-03-28T10:36:40.549Z,102218.28
2023-03-28T10:39:22.081Z,102211.06
2023-03-28T10:41:56.775Z,102212.34
2023-03-28T10:44:41.041Z,102207.41
2023-03-28T10:47:14.654Z,102208.72
2023-03-28T10:49:47.231Z,102195.94
2023-03-28T10:52:35.716Z,102188.81
2023-03-28T10:55:05.263Z,102190.34
2023-03-28T10:57:46.360Z,102185.03
2023-03-28T11:00:23.505Z,102176.97
2023-03-28T11:03:12.005Z,102179.22
2023-03-28T11:05:54.922Z,102171.56
2023-03-28T11:08:45.006Z,102176.59
2023-03-28T11:11:29.667Z,102163.72
2023-03-28T11:14:18.039Z,102168.66
2023-03-28T11:16:54.931Z,102158.50
2023-03-28T11:19:41.103Z,102152.22
2023-03-28T11:22:30.807Z,102142.19
2023-03-28T11:25:12.994Z,102144.66
2023-03-28T11:27:54.022Z,102131.34
2023-03-28T11:30:34.030Z,102134.09
2023-03-28T11:33:31.309Z,102127.63
2023-03-28T11:36:05.416Z,102130.00
2023-03-28T11:38:39.485Z,102120.59
2023-03-28T11:41:13.124Z,102118.28
2023-03-28T11:44:08.693Z,102112.66
2023-03-28T11:46:45.286Z,102108.88
2023-03-28T11:49:19.597Z,102096.41
2023-03-28T11:52:01.226Z,102096.84
2023-03-28T11:54:27.570Z,102093.25
2023-03-28T11:56:58.689Z,102095.09
2023-03-28T11:59:57.523Z,102085.50
2023-03-28T12:02:30.075Z,102076.34
2023-03-28T12:05:26.472Z,102070.75
2023-03-28T12:08:05.465Z,102071.59
2023-03-28T12:10:36.667Z,102066.16
2023-03-28T12:13:18.177Z,102068.47
2023-03-28T12:15:59.837Z,102063.44
2023-03-28T12:18:47.968Z,102060.09
2023-03-28T12:21:38.749Z,102045.63
2023-03-28T12:24:14.365Z,102048.66
2023-03-28T12:27:15.857Z,102043.53
2023-03-28T12:30:21.098Z,102043.19
2023-03-28T12:33:14.749Z,102032.59
2023-03-28T12:36:04.179Z,102043.47
2023-03-28T12:38:36.771Z,102033.22
2023-03-28T12:41:06.635Z,102016.13
2023-03-28T12:43:44.864Z,102014.31
2023-03-28T12:46:15.948Z,102002.91
2023-03-28T12:48:54.003Z,102003.50
2023-03-28T12:51:39.502Z,102003.00
2023-03-28T12:54:15.230Z,101996.34
2023-03-28T12:56:46.475Z,101996.78
2023-03-28T12:59:41.216Z,101996.59
2023-03-28T13:02:33.804Z,101995.41
2023-03-28T13:05:15.468Z,101989.44
2023-03-28T13:08:18.641Z,101987.09
2023-03-28T13:11:00.370Z,101979.94
2023-03-28T13:13:33.793Z,101967.31
2023-03-28T13:16:00.186Z,101975.22
2023-03-28T13:18:31.501Z,101961.91
2023-03-28T13:21:00.082Z,101960.75
2023-03-28T13:23:47.433Z,101965.91
2023-03-28T13:26:14.021Z,101953.75
2023-03-28T13:28:45.010Z,101943.34
2023-03-28T13:31:24.981Z,101935.31
2023-03-28T13:34:01.793Z,101928.63
2023-03-28T13:36:32.381Z,101932.00
2023-03-28T13:39:07.100Z,101926.50
2023-03-28T13:41:52.631Z,101934.81
2023-03-28T13:44:22.967Z,101913.91
2023-03-28T13:46:50.669Z,101919.34
2023-03-28T13:49:23.516Z,101912.31
2023-03-28T13:51:58.399Z,101914.63
2023-03-28T13:54:25.847Z,101902.94
2023-03-28T13:56:53.391Z,101907.53
2023-03-28T13:59:19.876Z,101897.44
2023-03-28T14:01:50.294Z,101905.31
2023-03-28T14:04:19.893Z,101890.28
2023-03-28T14:06:46.763Z,101883.47
2023-03-28T14:09:32.384Z,101892.06
2023-03-28T14:12:08.410Z,101872.56
2023-03-28T14:14:42.373Z,101875.91
2023-03-28T14:17:14.645Z,101866.97
2023-03-28T14:19:45.984Z,101868.50
2023-03-28T14:22:21.090Z,101856.31
2023-03-28T14:24:52.018Z,101854.13
2023-03-28T14:27:36.703Z,101846.19
2023-03-28T14:30:16.214Z,101848.59
2023-03-28T14:32:57.435Z,101837.38
2023-03-28T14:35:29.213Z,101835.66
2023-03-28T14:38:01.669Z,101833.78
2023-03-28T14:40:35.412Z,101832.56
2023-03-28T14:43:07.301Z,101817.84
2023-03-28T14:45:37.680Z,101808.63
2023-03-28T14:48:08.684Z,101808.50
2023-03-28T14:50:38.144Z,101801.59
2023-03-28T14:53:07.991Z,101799.94
2023-03-28T14:55:37.656Z,101800.41
2023-03-28T14:58:06.020Z,101789.13
2023-03-28T15:00:38.382Z,101778.84
2023-03-28T15:03:10.455Z,101783.69
2023-03-28T15:05:37.456Z,101776.50
2023-03-28T15:08:05.521Z,101781.28
2023-03-28T15:10:32.461Z,101764.91
2023-03-28T15:13:20.799Z,101754.97
2023-03-28T15:15:48.831Z,101761.75
2023-03-28T15:18:19.808Z,101750.31
2023-03-28T15:20:51.493Z,101741.72
2023-03-28T15:23:33.500Z,101731.91
2023-03-28T15:26:04.758Z,101732.53
2023-03-28T15:28:31.956Z,101733.34
2023-03-28T15:31:02.163Z,101734.63
2023-03-28T15:33:32.552Z,101734.72
2023-03-28T15:36:33.091Z,101721.44
2023-03-28T15:39:02.184Z,101721.97
2023-03-28T15:41:46.626Z,101715.59
2023-03-28T15:44:34.305Z,101711.69
2023-03-28T15:47:09.622Z,101696.00
2023-03-28T15:49:37.785Z,101690.06
2023-03-28T15:52:09.370Z,101689.56
2023-03-28T15:54:40.894Z,101682.81
2023-03-28T15:57:12.099Z,101669.63
2023-03-28T15:59:48.254Z,101671.16
2023-03-28T16:02:23.760Z,101662.63
2023-03-28T16:05:14.924Z,101671.00
2023-03-28T16:07:45.790Z,101666.94
2023-03-28T16:10:20.684Z,101666.66
2023-03-28T16:12:48.410Z,101664.28
2023-03-28T16:15:15.588Z,101658.50
2023-03-28T16:17:43.292Z,101653.06
2023-03-28T16:20:29.934Z,101656.56
2023-03-28T16:22:56.558Z,101648.53
2023-03-28T16:25:22.904Z,101646.06
2023-03-28T16:27:49.250Z,101642.97
2023-03-28T16:30:24.949Z,101632.97
2023-03-28T16:32:52.575Z,101625.94
2023-03-28T16:35:19.128Z,101632.00
2023-03-28T16:37:45.669Z,101626.00
2023-03-28T16:40:12.558Z,101620.06
2023-03-28T16:42:38.909Z,101615.00
2023-03-28T16:45:06.396Z,101613.28
2023-03-28T16:47:32.878Z,101617.47
2023-03-28T16:49:59.195Z,101617.63
2023-03-28T16:52:27.256Z,101628.00
2023-03-28T16:54:54.929Z,101620.47
2023-03-28T16:57:21.334Z,101622.78
2023-03-28T16:59:47.939Z,101621.59
2023-03-28T17:02:14.480Z,101627.94
2023-03-28T17:04:41.244Z,101626.38
2023-03-28T17:07:07.672Z,101618.97
2023-03-28T17:09:34.677Z,101616.25
2023-03-28T17:12:01.336Z,101608.22
2023-03-28T17:14:27.877Z,101613.31
2023-03-28T17:16:54.333Z,101613.84
2023-03-28T17:19:23.953Z,101617.69
2023-03-28T17:21:50.600Z,101615.19
2023-03-28T17:24:16.963Z,101615.19
2023-03-28T17:26:43.317Z,101607.78
2023-03-28T17:29:11.815Z,101619.88
2023-03-28T17:31:38.402Z,101625.16
2023-03-28T17:34:04.919Z,101615.81
2023-03-28T17:36:31.568Z,101619.56
2023-03-28T17:38:58.806Z,101611.28
2023-03-28T17:41:27.943Z,101617.97
2023-03-28T17:43:56.406Z,101622.16
2023-03-28T17:46:23.964Z,101619.25
2023-03-28T17:48:50.679Z,101614.72
2023-03-28T17:51:17.581Z,101611.41
2023-03-28T17:53:46.832Z,101613.91
2023-03-28T17:56:13.413Z,101616.66
2023-03-28T17:58:39.837Z,101607.31
2023-03-28T18:01:10.958Z,101609.00
2023-03-28T18:03:39.139Z,101614.41
2023-03-28T18:06:06.076Z,101614.63
2023-03-28T18:08:32.435Z,101618.81
2023-03-28T18:11:18.645Z,101617.81
2023-03-28T18:13:45.266Z,101613.72
2023-03-28T18:16:13.422Z,101617.50
2023-03-28T18:18:40.559Z,101612.69
2023-03-28T18:21:08.387Z,101614.56
2023-03-28T18:23:35.886Z,101622.47
2023-03-28T18:26:02.895Z,101622.94
2023-03-28T18:28:29.438Z,101622.03
2023-03-28T18:30:56.046Z,101617.00
2023-03-28T18:33:22.515Z,101613.22
2023-03-28T18:35:49.355Z,101617.81
2023-03-28T18:38:16.021Z,101610.84
2023-03-28T18:40:42.892Z,101625.03
2023-03-28T18:43:09.754Z,101622.75
2023-03-28T18:45:36.395Z,101621.72
2023-03-28T18:48:03.832Z,101624.19
2023-03-28T18:50:31.264Z,101620.38
2023-03-28T18:52:57.913Z,101621.44
2023-03-28T18:55:24.764Z,101609.97
2023-03-28T18:57:52.903Z,101616.50
2023-03-28T19:00:20.298Z,101620.72
2023-03-28T19:02:48.759Z,101609.41
2023-03-28T19:05:16.677Z,101620.09
2023-03-28T19:07:44.308Z,101627.56
2023-03-28T19:10:13.155Z,101632.66
2023-03-28T19:12:41.218Z,101638.59
2023-03-28T19:15:10.461Z,101641.97
2023-03-28T19:17:38.751Z,101651.00
2023-03-28T19:20:07.760Z,101652.59
2023-03-28T19:22:35.212Z,101659.41
2023-03-28T19:25:01.829Z,101665.47
2023-03-28T19:27:28.219Z,101675.53
2023-03-28T19:29:54.598Z,101671.41
2023-03-28T19:32:21.320Z,101684.53
2023-03-28T19:34:47.882Z,101684.16
2023-03-28T19:37:14.304Z,101671.66
2023-03-28T19:39:40.850Z,101682.44
2023-03-28T19:42:07.400Z,101678.69
2023-03-28T19:44:33.800Z,101668.28
2023-03-28T19:47:00.501Z,101662.88
2023-03-28T19:49:26.906Z,101658.91
2023-03-28T19:51:53.372Z,101657.88
2023-03-28T19:54:19.876Z,101656.81
2023-03-28T19:56:46.809Z,101653.06
2023-03-28T19:59:13.296Z,101641.59
2023-03-28T20:01:39.805Z,101631.84
2023-03-28T20:04:06.334Z,101625.00
2023-03-28T20:06:32.694Z,101623.75
2023-03-28T20:08:59.112Z,101617.53
2023-03-28T20:11:26.745Z,101613.56
2023-03-28T20:13:53.154Z,101607.34
2023-03-28T20:16:19.617Z,101596.94
2023-03-28T20:18:46.403Z,101597.09
2023-03-28T20:21:13.350Z,101599.84
2023-03-28T20:23:40.184Z,101585.47
2023-03-28T20:26:21.984Z,101590.84
2023-03-28T20:28:52.594Z,101594.41
2023-03-28T20:31:19.341Z,101595.81
2023-03-28T20:33:46.076Z,101611.19
2023-03-28T20:36:12.642Z,101613.47
2023-03-28T20:38:39.269Z,101606.19
2023-03-28T20:41:11.035Z,101600.38
2023-03-28T20:43:40.478Z,101607.41
2023-03-28T20:46:07.651Z,101607.16
2023-03-28T20:48:37.102Z,101609.41
2023-03-28T20:51:05.827Z,101599.03
2023-03-28T20:53:33.287Z,101600.69
2023-03-28T20:56:01.772Z,101598.81
2023-03-28T20:58:29.992Z,101599.22
2023-03-28T21:00:57.712Z,101601.06
2023-03-28T21:03:39.117Z,101599.22
2023-03-28T21:06:06.799Z,101594.28
2023-03-28T21:08:36.170Z,101587.63
2023-03-28T21:11:03.418Z,101571.22
2023-03-28T21:13:30.364Z,101570.00
2023-03-28T21:15:57.404Z,101565.19
2023-03-28T21:18:23.999Z,101560.00
2023-03-28T21:20:50.469Z,101550.81
2023-03-28T21:23:16.858Z,101543.78
2023-03-28T21:25:45.177Z,101539.41
2023-03-28T21:28:12.528Z,101536.69
2023-03-28T21:30:40.196Z,101532.97
2023-03-28T21:33:07.052Z,101525.91
2023-03-28T21:35:34.651Z,101526.72
2023-03-28T21:38:01.508Z,101523.81
2023-03-28T21:40:27.928Z,101522.31
2023-03-28T21:42:54.296Z,101518.38
2023-03-28T21:45:21.029Z,101516.72
2023-03-28T21:47:47.554Z,101528.34
2023-03-28T21:50:15.120Z,101517.53
2023-03-28T21:52:41.769Z,101515.66
2023-03-28T21:55:09.301Z,101515.47
2023-03-28T21:57:36.682Z,101507.75
2023-03-28T22:00:14.941Z,101502.16
2023-03-28T22:02:42.345Z,101513.31
2023-03-28T22:05:18.750Z,101507.25
2023-03-28T22:07:53.363Z,101508.06
2023-03-28T22:10:20.005Z,101491.28
2023-03-28T22:12:46.465Z,101498.34
2023-03-28T22:15:14.095Z,101492.91
2023-03-28T22:17:41.962Z,101479.44
2023-03-28T22:20:13.036Z,101479.88
2023-03-28T22:22:42.618Z,101479.88
2023-03-28T22:25:10.778Z,101482.75
2023-03-28T22:27:38.535Z,101480.06
2023-03-28T22:30:09.060Z,101483.59
2023-03-28T22:32:38.175Z,101478.00
2023-03-28T22:35:05.909Z,101469.91
2023-03-28T22:37:33.136Z,101469.22
2023-03-28T22:39:59.676Z,101461.78
2023-03-28T22:42:26.456Z,101458.47
2023-03-28T22:44:53.055Z,101453.09
2023-03-28T22:47:19.413Z,101452.22
2023-03-28T22:49:45.818Z,101445.19
2023-03-28T22:52:13.663Z,101441.84
2023-03-28T22:54:42.463Z,101447.25
2023-03-28T22:57:09.121Z,101457.63
2023-03-28T22:59:36.243Z,101440.00
2023-03-28T23:02:03.026Z,101435.03
2023-03-28T23:04:29.683Z,101444.38
2023-03-28T23:06:56.370Z,101438.09
2023-03-28T23:09:24.753Z,101444.38
2023-03-28T23:11:52.293Z,101435.22
2023-03-28T23:14:18.782Z,101446.44
2023-03-28T23:16:45.423Z,101436.84
2023-03-28T23:19:11.916Z,101427.31
2023-03-28T23:21:38.254Z,101423.59
2023-03-28T23:24:05.529Z,101412.00
2023-03-28T23:26:31.896Z,101410.13
2023-03-28T23:28:58.328Z,101400.38
2023-03-28T23:31:24.734Z,101402.88
2023-03-28T23:33:51.098Z,101396.63
2023-03-28T23:36:20.853Z,101397.06
2023-03-28T23:38:48.718Z,101388.97
2023-03-28T23:41:15.174Z,101384.34
2023-03-28T23:43:41.726Z,101378.38
2023-03-28T23:46:08.941Z,101377.75
2023-03-28T23:48:36.167Z,101373.78
2023-03-28T23:51:03.331Z,101370.06
2023-03-28T23:53:30.333Z,101373.59
2023-03-28T23:55:56.685Z,101364.44
2023-03-28T23:58:23.018Z,101363.84
